sensor_id;sensor_type;location;lat;lon;timestamp;P1;durP1;ratioP1;P2;durP2;ratioP2
77888;SDS011;67082;41.704;44.768;2023-04-12T00:00:35;26.45;;;10.18;;
77888;SDS011;67082;41.704;44.768;2023-04-12T00:03:13;19.85;;;9.75;;
77888;SDS011;67082;41.704;44.768;2023-04-12T00:05:47;20.35;;;8.95;;
77888;SDS011;67082;41.704;44.768;2023-04-12T00:08:21;22.58;;;9.15;;
77888;SDS011;67082;41.704;44.768;2023-04-12T00:11:00;21.23;;;9.07;;
77888;SDS011;67082;41.704;44.768;2023-04-12T00:13:30;20.40;;;8.90;;
77888;SDS011;67082;41.704;44.768;2023-04-12T00:15:58;20.75;;;9.82;;
77888;SDS011;67082;41.704;44.768;2023-04-12T00:18:26;23.30;;;10.10;;
77888;SDS011;67082;41.704;44.768;2023-04-12T00:20:54;24.20;;;10.27;;
77888;SDS011;67082;41.704;44.768;2023-04-12T00:23:22;25.73;;;10.18;;
77888;SDS011;67082;41.704;44.768;2023-04-12T00:25:51;21.48;;;9.68;;
77888;SDS011;67082;41.704;44.768;2023-04-12T00:28:19;19.63;;;9.90;;
77888;SDS011;67082;41.704;44.768;2023-04-12T00:30:47;21.17;;;9.68;;
77888;SDS011;67082;41.704;44.768;2023-04-12T00:33:15;18.33;;;9.60;;
77888;SDS011;67082;41.704;44.768;2023-04-12T00:35:43;24.83;;;9.88;;
77888;SDS011;67082;41.704;44.768;2023-04-12T00:38:13;23.83;;;9.93;;
77888;SDS011;67082;41.704;44.768;2023-04-12T00:40:42;28.63;;;11.80;;
77888;SDS011;67082;41.704;44.768;2023-04-12T00:43:11;23.45;;;11.30;;
77888;SDS011;67082;41.704;44.768;2023-04-12T00:45:45;24.45;;;11.38;;
77888;SDS011;67082;41.704;44.768;2023-04-12T00:48:14;28.92;;;12.48;;
77888;SDS011;67082;41.704;44.768;2023-04-12T00:50:43;29.40;;;13.30;;
77888;SDS011;67082;41.704;44.768;2023-04-12T00:53:12;29.02;;;13.38;;
77888;SDS011;67082;41.704;44.768;2023-04-12T00:55:42;30.58;;;14.25;;
77888;SDS011;67082;41.704;44.768;2023-04-12T00:58:12;37.25;;;16.40;;
77888;SDS011;67082;41.704;44.768;2023-04-12T01:00:41;31.20;;;15.57;;
77888;SDS011;67082;41.704;44.768;2023-04-12T01:03:17;34.60;;;14.82;;
77888;SDS011;67082;41.704;44.768;2023-04-12T01:08:57;32.70;;;14.65;;
77888;SDS011;67082;41.704;44.768;2023-04-12T01:12:14;30.83;;;14.65;;
77888;SDS011;67082;41.704;44.768;2023-04-12T01:17:19;32.95;;;13.68;;
77888;SDS011;67082;41.704;44.768;2023-04-12T01:20:11;27.35;;;10.00;;
77888;SDS011;67082;41.704;44.768;2023-04-12T01:23:05;25.65;;;11.68;;
77888;SDS011;67082;41.704;44.768;2023-04-12T01:28:18;29.50;;;13.52;;
77888;SDS011;67082;41.704;44.768;2023-04-12T01:30:50;31.25;;;13.70;;
77888;SDS011;67082;41.704;44.768;2023-04-12T01:33:25;27.83;;;13.63;;
77888;SDS011;67082;41.704;44.768;2023-04-12T01:36:01;25.73;;;11.77;;
77888;SDS011;67082;41.704;44.768;2023-04-12T01:38:37;28.67;;;12.38;;
77888;SDS011;67082;41.704;44.768;2023-04-12T01:41:07;23.13;;;11.30;;
77888;SDS011;67082;41.704;44.768;2023-04-12T01:43:40;20.67;;;11.27;;
77888;SDS011;67082;41.704;44.768;2023-04-12T01:46:09;23.35;;;10.68;;
77888;SDS011;67082;41.704;44.768;2023-04-12T01:48:40;25.80;;;10.43;;
77888;SDS011;67082;41.704;44.768;2023-04-12T01:51:14;20.92;;;10.27;;
77888;SDS011;67082;41.704;44.768;2023-04-12T01:54:12;23.75;;;9.55;;
77888;SDS011;67082;41.704;44.768;2023-04-12T01:56:45;21.65;;;9.73;;
77888;SDS011;67082;41.704;44.768;2023-04-12T01:59:17;15.85;;;7.60;;
77888;SDS011;67082;41.704;44.768;2023-04-12T02:01:48;18.25;;;8.15;;
77888;SDS011;67082;41.704;44.768;2023-04-12T02:04:18;16.05;;;8.35;;
77888;SDS011;67082;41.704;44.768;2023-04-12T02:06:48;14.07;;;7.40;;
77888;SDS011;67082;41.704;44.768;2023-04-12T02:09:16;20.88;;;8.18;;
77888;SDS011;67082;41.704;44.768;2023-04-12T02:11:47;19.85;;;8.85;;
77888;SDS011;67082;41.704;44.768;2023-04-12T02:14:16;19.83;;;8.60;;
77888;SDS011;67082;41.704;44.768;2023-04-12T02:16:44;16.55;;;8.20;;
77888;SDS011;67082;41.704;44.768;2023-04-12T02:19:12;18.10;;;7.78;;
77888;SDS011;67082;41.704;44.768;2023-04-12T02:21:42;19.33;;;8.57;;
77888;SDS011;67082;41.704;44.768;2023-04-12T02:24:12;17.10;;;8.13;;
77888;SDS011;67082;41.704;44.768;2023-04-12T02:26:43;15.85;;;8.30;;
77888;SDS011;67082;41.704;44.768;2023-04-12T02:29:13;15.05;;;8.50;;
77888;SDS011;67082;41.704;44.768;2023-04-12T02:31:42;18.55;;;8.30;;
77888;SDS011;67082;41.704;44.768;2023-04-12T02:34:11;20.42;;;8.63;;
77888;SDS011;67082;41.704;44.768;2023-04-12T02:36:45;18.20;;;8.52;;
77888;SDS011;67082;41.704;44.768;2023-04-12T02:39:14;20.55;;;9.77;;
77888;SDS011;67082;41.704;44.768;2023-04-12T02:41:47;20.40;;;9.60;;
77888;SDS011;67082;41.704;44.768;2023-04-12T02:44:16;23.35;;;10.27;;
77888;SDS011;67082;41.704;44.768;2023-04-12T02:47:08;19.77;;;10.38;;
77888;SDS011;67082;41.704;44.768;2023-04-12T02:49:39;19.92;;;11.65;;
77888;SDS011;67082;41.704;44.768;2023-04-12T02:52:09;22.45;;;11.18;;
77888;SDS011;67082;41.704;44.768;2023-04-12T02:54:47;25.30;;;12.00;;
77888;SDS011;67082;41.704;44.768;2023-04-12T02:57:16;26.25;;;12.10;;
77888;SDS011;67082;41.704;44.768;2023-04-12T02:59:46;21.58;;;11.32;;
77888;SDS011;67082;41.704;44.768;2023-04-12T03:02:20;22.50;;;12.50;;
77888;SDS011;67082;41.704;44.768;2023-04-12T03:04:52;24.42;;;12.25;;
77888;SDS011;67082;41.704;44.768;2023-04-12T03:07:29;28.73;;;13.20;;
77888;SDS011;67082;41.704;44.768;2023-04-12T03:09:58;25.20;;;12.95;;
77888;SDS011;67082;41.704;44.768;2023-04-12T03:12:26;29.17;;;13.45;;
77888;SDS011;67082;41.704;44.768;2023-04-12T03:15:18;27.73;;;12.45;;
77888;SDS011;67082;41.704;44.768;2023-04-12T03:17:52;31.20;;;12.75;;
77888;SDS011;67082;41.704;44.768;2023-04-12T03:20:25;22.77;;;11.73;;
77888;SDS011;67082;41.704;44.768;2023-04-12T03:23:02;21.75;;;10.68;;
77888;SDS011;67082;41.704;44.768;2023-04-12T03:25:32;19.48;;;10.57;;
77888;SDS011;67082;41.704;44.768;2023-04-12T03:28:17;16.02;;;9.45;;
77888;SDS011;67082;41.704;44.768;2023-04-12T03:30:48;18.17;;;9.18;;
77888;SDS011;67082;41.704;44.768;2023-04-12T03:33:20;17.35;;;8.25;;
77888;SDS011;67082;41.704;44.768;2023-04-12T03:35:51;16.20;;;7.40;;
77888;SDS011;67082;41.704;44.768;2023-04-12T03:38:19;16.25;;;7.15;;
77888;SDS011;67082;41.704;44.768;2023-04-12T03:40:47;11.48;;;6.95;;
77888;SDS011;67082;41.704;44.768;2023-04-12T03:43:19;13.43;;;7.30;;
77888;SDS011;67082;41.704;44.768;2023-04-12T03:45:47;19.20;;;9.57;;
77888;SDS011;67082;41.704;44.768;2023-04-12T03:48:16;18.10;;;9.93;;
77888;SDS011;67082;41.704;44.768;2023-04-12T03:50:45;29.17;;;12.13;;
77888;SDS011;67082;41.704;44.768;2023-04-12T03:53:20;22.27;;;11.57;;
77888;SDS011;67082;41.704;44.768;2023-04-12T03:55:50;18.50;;;10.27;;
77888;SDS011;67082;41.704;44.768;2023-04-12T03:58:21;16.73;;;8.60;;
77888;SDS011;67082;41.704;44.768;2023-04-12T04:00:49;16.42;;;8.43;;
77888;SDS011;67082;41.704;44.768;2023-04-12T04:03:18;18.98;;;8.63;;
77888;SDS011;67082;41.704;44.768;2023-04-12T04:06:01;17.42;;;8.60;;
77888;SDS011;67082;41.704;44.768;2023-04-12T04:08:31;16.20;;;8.57;;
77888;SDS011;67082;41.704;44.768;2023-04-12T04:11:00;16.83;;;8.70;;
77888;SDS011;67082;41.704;44.768;2023-04-12T04:13:36;21.98;;;9.93;;
77888;SDS011;67082;41.704;44.768;2023-04-12T04:16:07;22.48;;;9.90;;
77888;SDS011;67082;41.704;44.768;2023-04-12T04:18:39;15.93;;;9.60;;
77888;SDS011;67082;41.704;44.768;2023-04-12T04:21:10;20.67;;;10.20;;
77888;SDS011;67082;41.704;44.768;2023-04-12T04:23:38;21.90;;;10.70;;
77888;SDS011;67082;41.704;44.768;2023-04-12T04:26:08;17.42;;;10.88;;
77888;SDS011;67082;41.704;44.768;2023-04-12T04:28:43;16.73;;;9.75;;
77888;SDS011;67082;41.704;44.768;2023-04-12T04:31:17;22.27;;;11.32;;
77888;SDS011;67082;41.704;44.768;2023-04-12T04:33:48;20.92;;;11.32;;
77888;SDS011;67082;41.704;44.768;2023-04-12T04:36:22;27.55;;;12.68;;
77888;SDS011;67082;41.704;44.768;2023-04-12T04:38:53;27.05;;;13.50;;
77888;SDS011;67082;41.704;44.768;2023-04-12T04:41:48;24.80;;;12.25;;
77888;SDS011;67082;41.704;44.768;2023-04-12T04:44:41;23.60;;;12.90;;
77888;SDS011;67082;41.704;44.768;2023-04-12T04:47:10;27.55;;;13.90;;
77888;SDS011;67082;41.704;44.768;2023-04-12T04:49:38;27.70;;;13.82;;
77888;SDS011;67082;41.704;44.768;2023-04-12T04:52:24;29.80;;;14.00;;
77888;SDS011;67082;41.704;44.768;2023-04-12T04:54:57;25.23;;;13.43;;
77888;SDS011;67082;41.704;44.768;2023-04-12T04:57:31;29.15;;;14.82;;
77888;SDS011;67082;41.704;44.768;2023-04-12T05:00:05;26.52;;;14.50;;
77888;SDS011;67082;41.704;44.768;2023-04-12T05:02:40;25.60;;;14.83;;
77888;SDS011;67082;41.704;44.768;2023-04-12T05:05:17;25.13;;;13.73;;
77888;SDS011;67082;41.704;44.768;2023-04-12T05:07:55;26.63;;;14.68;;
77888;SDS011;67082;41.704;44.768;2023-04-12T05:10:28;25.60;;;13.95;;
77888;SDS011;67082;41.704;44.768;2023-04-12T05:13:00;26.40;;;13.07;;
77888;SDS011;67082;41.704;44.768;2023-04-12T05:15:29;27.38;;;13.07;;
77888;SDS011;67082;41.704;44.768;2023-04-12T05:17:59;27.92;;;14.60;;
77888;SDS011;67082;41.704;44.768;2023-04-12T05:20:29;24.63;;;14.85;;
77888;SDS011;67082;41.704;44.768;2023-04-12T05:23:01;26.50;;;13.70;;
77888;SDS011;67082;41.704;44.768;2023-04-12T05:25:29;25.98;;;14.45;;
77888;SDS011;67082;41.704;44.768;2023-04-12T05:28:04;25.50;;;14.47;;
77888;SDS011;67082;41.704;44.768;2023-04-12T05:30:33;26.80;;;14.55;;
77888;SDS011;67082;41.704;44.768;2023-04-12T05:33:03;24.45;;;14.15;;
77888;SDS011;67082;41.704;44.768;2023-04-12T05:35:32;28.05;;;14.27;;
77888;SDS011;67082;41.704;44.768;2023-04-12T05:38:00;27.38;;;13.75;;
77888;SDS011;67082;41.704;44.768;2023-04-12T05:40:29;22.02;;;12.65;;
77888;SDS011;67082;41.704;44.768;2023-04-12T05:42:58;21.27;;;11.93;;
77888;SDS011;67082;41.704;44.768;2023-04-12T05:45:30;32.38;;;12.20;;
77888;SDS011;67082;41.704;44.768;2023-04-12T05:48:00;22.60;;;12.50;;
77888;SDS011;67082;41.704;44.768;2023-04-12T05:50:28;19.27;;;11.25;;
77888;SDS011;67082;41.704;44.768;2023-04-12T05:52:57;23.60;;;13.43;;
77888;SDS011;67082;41.704;44.768;2023-04-12T05:55:29;21.90;;;11.75;;
77888;SDS011;67082;41.704;44.768;2023-04-12T05:57:58;18.60;;;11.02;;
77888;SDS011;67082;41.704;44.768;2023-04-12T06:00:27;25.38;;;14.30;;
77888;SDS011;67082;41.704;44.768;2023-04-12T06:02:55;12.27;;;7.03;;
77888;SDS011;67082;41.704;44.768;2023-04-12T06:05:25;14.50;;;6.70;;
77888;SDS011;67082;41.704;44.768;2023-04-12T06:07:53;17.50;;;8.45;;
77888;SDS011;67082;41.704;44.768;2023-04-12T06:10:21;11.60;;;7.10;;
77888;SDS011;67082;41.704;44.768;2023-04-12T06:12:52;14.38;;;7.57;;
77888;SDS011;67082;41.704;44.768;2023-04-12T06:15:20;16.55;;;7.82;;
77888;SDS011;67082;41.704;44.768;2023-04-12T06:17:54;15.57;;;7.60;;
77888;SDS011;67082;41.704;44.768;2023-04-12T06:20:30;19.45;;;8.95;;
77888;SDS011;67082;41.704;44.768;2023-04-12T06:22:59;19.23;;;9.75;;
77888;SDS011;67082;41.704;44.768;2023-04-12T06:25:27;26.13;;;13.10;;
77888;SDS011;67082;41.704;44.768;2023-04-12T06:27:57;21.05;;;12.43;;
77888;SDS011;67082;41.704;44.768;2023-04-12T06:30:25;25.60;;;14.35;;
77888;SDS011;67082;41.704;44.768;2023-04-12T06:32:54;32.28;;;16.42;;
77888;SDS011;67082;41.704;44.768;2023-04-12T06:35:22;27.75;;;15.55;;
77888;SDS011;67082;41.704;44.768;2023-04-12T06:37:50;28.80;;;14.63;;
77888;SDS011;67082;41.704;44.768;2023-04-12T06:40:18;24.33;;;15.27;;
77888;SDS011;67082;41.704;44.768;2023-04-12T06:42:47;32.60;;;20.02;;
77888;SDS011;67082;41.704;44.768;2023-04-12T06:45:20;39.55;;;20.73;;
77888;SDS011;67082;41.704;44.768;2023-04-12T06:47:49;37.58;;;20.92;;
77888;SDS011;67082;41.704;44.768;2023-04-12T06:50:17;39.22;;;19.92;;
77888;SDS011;67082;41.704;44.768;2023-04-12T06:52:45;35.38;;;19.52;;
77888;SDS011;67082;41.704;44.768;2023-04-12T06:55:14;37.50;;;18.13;;
77888;SDS011;67082;41.704;44.768;2023-04-12T06:57:43;36.00;;;19.05;;
77888;SDS011;67082;41.704;44.768;2023-04-12T07:00:12;39.45;;;20.55;;
77888;SDS011;67082;41.704;44.768;2023-04-12T07:02:41;31.58;;;19.83;;
77888;SDS011;67082;41.704;44.768;2023-04-12T07:05:09;32.72;;;18.92;;
77888;SDS011;67082;41.704;44.768;2023-04-12T07:07:37;38.03;;;18.15;;
77888;SDS011;67082;41.704;44.768;2023-04-12T07:10:05;36.50;;;18.70;;
77888;SDS011;67082;41.704;44.768;2023-04-12T07:12:34;32.42;;;17.83;;
77888;SDS011;67082;41.704;44.768;2023-04-12T07:15:02;36.97;;;17.80;;
77888;SDS011;67082;41.704;44.768;2023-04-12T07:17:30;36.97;;;18.92;;
77888;SDS011;67082;41.704;44.768;2023-04-12T07:19:58;30.50;;;17.10;;
77888;SDS011;67082;41.704;44.768;2023-04-12T07:22:27;30.05;;;17.38;;
77888;SDS011;67082;41.704;44.768;2023-04-12T07:24:55;27.10;;;15.18;;
77888;SDS011;67082;41.704;44.768;2023-04-12T07:27:23;25.50;;;15.43;;
77888;SDS011;67082;41.704;44.768;2023-04-12T07:29:51;32.47;;;16.08;;
77888;SDS011;67082;41.704;44.768;2023-04-12T07:32:22;30.92;;;15.98;;
77888;SDS011;67082;41.704;44.768;2023-04-12T07:34:50;31.95;;;17.98;;
77888;SDS011;67082;41.704;44.768;2023-04-12T07:37:19;27.40;;;15.32;;
77888;SDS011;67082;41.704;44.768;2023-04-12T07:39:47;24.95;;;14.55;;
77888;SDS011;67082;41.704;44.768;2023-04-12T07:42:15;23.25;;;12.63;;
77888;SDS011;67082;41.704;44.768;2023-04-12T07:44:43;21.92;;;12.75;;
77888;SDS011;67082;41.704;44.768;2023-04-12T07:47:12;29.65;;;14.30;;
77888;SDS011;67082;41.704;44.768;2023-04-12T07:49:40;28.50;;;14.90;;
77888;SDS011;67082;41.704;44.768;2023-04-12T07:52:08;31.55;;;14.23;;
77888;SDS011;67082;41.704;44.768;2023-04-12T07:54:36;30.80;;;15.93;;
77888;SDS011;67082;41.704;44.768;2023-04-12T07:57:04;30.70;;;16.23;;
77888;SDS011;67082;41.704;44.768;2023-04-12T07:59:32;28.20;;;15.80;;
77888;SDS011;67082;41.704;44.768;2023-04-12T08:02:00;30.35;;;15.00;;
77888;SDS011;67082;41.704;44.768;2023-04-12T08:04:29;29.27;;;12.90;;
77888;SDS011;67082;41.704;44.768;2023-04-12T08:06:57;24.48;;;11.43;;
77888;SDS011;67082;41.704;44.768;2023-04-12T08:09:25;20.30;;;9.80;;
77888;SDS011;67082;41.704;44.768;2023-04-12T08:11:54;21.73;;;9.98;;
77888;SDS011;67082;41.704;44.768;2023-04-12T08:14:23;18.48;;;8.68;;
77888;SDS011;67082;41.704;44.768;2023-04-12T08:16:51;22.95;;;9.43;;
77888;SDS011;67082;41.704;44.768;2023-04-12T08:19:19;21.08;;;10.15;;
77888;SDS011;67082;41.704;44.768;2023-04-12T08:21:48;24.63;;;10.52;;
77888;SDS011;67082;41.704;44.768;2023-04-12T08:24:16;22.70;;;10.75;;
77888;SDS011;67082;41.704;44.768;2023-04-12T08:26:44;27.55;;;12.63;;
77888;SDS011;67082;41.704;44.768;2023-04-12T08:29:13;27.67;;;11.55;;
77888;SDS011;67082;41.704;44.768;2023-04-12T08:31:41;24.05;;;10.88;;
77888;SDS011;67082;41.704;44.768;2023-04-12T08:34:09;26.35;;;10.50;;
77888;SDS011;67082;41.704;44.768;2023-04-12T08:36:37;18.38;;;7.88;;
77888;SDS011;67082;41.704;44.768;2023-04-12T08:39:05;19.42;;;7.95;;
77888;SDS011;67082;41.704;44.768;2023-04-12T08:41:33;15.52;;;7.25;;
77888;SDS011;67082;41.704;44.768;2023-04-12T08:44:05;19.58;;;8.45;;
77888;SDS011;67082;41.704;44.768;2023-04-12T08:46:34;22.20;;;9.27;;
77888;SDS011;67082;41.704;44.768;2023-04-12T08:49:03;26.33;;;11.13;;
77888;SDS011;67082;41.704;44.768;2023-04-12T08:51:31;26.50;;;10.35;;
77888;SDS011;67082;41.704;44.768;2023-04-12T08:54:00;26.10;;;13.32;;
77888;SDS011;67082;41.704;44.768;2023-04-12T08:56:29;28.92;;;12.15;;
77888;SDS011;67082;41.704;44.768;2023-04-12T08:59:00;31.88;;;12.35;;
77888;SDS011;67082;41.704;44.768;2023-04-12T09:01:29;27.38;;;12.32;;
77888;SDS011;67082;41.704;44.768;2023-04-12T09:03:57;36.25;;;12.70;;
77888;SDS011;67082;41.704;44.768;2023-04-12T09:06:27;28.95;;;12.93;;
77888;SDS011;67082;41.704;44.768;2023-04-12T09:08:55;32.13;;;13.23;;
77888;SDS011;67082;41.704;44.768;2023-04-12T09:11:24;28.80;;;12.93;;
77888;SDS011;67082;41.704;44.768;2023-04-12T09:13:57;28.00;;;10.85;;
77888;SDS011;67082;41.704;44.768;2023-04-12T09:16:46;24.40;;;9.93;;
77888;SDS011;67082;41.704;44.768;2023-04-12T09:19:14;21.58;;;10.27;;
77888;SDS011;67082;41.704;44.768;2023-04-12T09:21:52;22.00;;;10.38;;
77888;SDS011;67082;41.704;44.768;2023-04-12T09:24:22;26.70;;;9.52;;
77888;SDS011;67082;41.704;44.768;2023-04-12T09:27:00;23.90;;;10.20;;
77888;SDS011;67082;41.704;44.768;2023-04-12T09:29:29;28.55;;;12.02;;
77888;SDS011;67082;41.704;44.768;2023-04-12T09:32:02;26.08;;;11.88;;
77888;SDS011;67082;41.704;44.768;2023-04-12T09:37:12;26.17;;;11.30;;
77888;SDS011;67082;41.704;44.768;2023-04-12T09:39:44;25.95;;;11.65;;
77888;SDS011;67082;41.704;44.768;2023-04-12T09:42:12;23.45;;;11.93;;
77888;SDS011;67082;41.704;44.768;2023-04-12T09:44:59;24.85;;;11.90;;
77888;SDS011;67082;41.704;44.768;2023-04-12T09:47:45;21.77;;;11.05;;
77888;SDS011;67082;41.704;44.768;2023-04-12T09:50:21;25.48;;;10.30;;
77888;SDS011;67082;41.704;44.768;2023-04-12T09:52:57;24.30;;;11.43;;
77888;SDS011;67082;41.704;44.768;2023-04-12T09:55:26;20.92;;;11.23;;
77888;SDS011;67082;41.704;44.768;2023-04-12T09:57:56;27.15;;;11.93;;
77888;SDS011;67082;41.704;44.768;2023-04-12T10:00:28;19.85;;;11.70;;
77888;SDS011;67082;41.704;44.768;2023-04-12T10:02:58;25.40;;;10.43;;
77888;SDS011;67082;41.704;44.768;2023-04-12T10:05:26;21.17;;;11.65;;
77888;SDS011;67082;41.704;44.768;2023-04-12T10:07:58;20.67;;;10.70;;
77888;SDS011;67082;41.704;44.768;2023-04-12T10:10:29;24.92;;;10.40;;
77888;SDS011;67082;41.704;44.768;2023-04-12T10:12:58;20.50;;;9.82;;
77888;SDS011;67082;41.704;44.768;2023-04-12T10:15:28;23.65;;;9.38;;
77888;SDS011;67082;41.704;44.768;2023-04-12T10:18:02;19.00;;;8.95;;
77888;SDS011;67082;41.704;44.768;2023-04-12T10:20:32;22.23;;;10.20;;
77888;SDS011;67082;41.704;44.768;2023-04-12T10:23:04;18.00;;;8.10;;
77888;SDS011;67082;41.704;44.768;2023-04-12T10:25:33;19.30;;;8.02;;
77888;SDS011;67082;41.704;44.768;2023-04-12T10:28:17;19.15;;;7.20;;
77888;SDS011;67082;41.704;44.768;2023-04-12T10:33:18;12.32;;;4.78;;
77888;SDS011;67082;41.704;44.768;2023-04-12T10:35:52;12.80;;;4.72;;
77888;SDS011;67082;41.704;44.768;2023-04-12T10:38:22;10.93;;;5.07;;
77888;SDS011;67082;41.704;44.768;2023-04-12T10:41:09;12.90;;;4.95;;
77888;SDS011;67082;41.704;44.768;2023-04-12T10:43:46;15.60;;;4.47;;
77888;SDS011;67082;41.704;44.768;2023-04-12T10:49:19;10.60;;;3.78;;
77888;SDS011;67082;41.704;44.768;2023-04-12T10:54:31;13.13;;;3.78;;
77888;SDS011;67082;41.704;44.768;2023-04-12T10:57:02;10.77;;;4.00;;
77888;SDS011;67082;41.704;44.768;2023-04-12T11:02:22;11.15;;;3.72;;
77888;SDS011;67082;41.704;44.768;2023-04-12T11:05:02;10.20;;;3.40;;
77888;SDS011;67082;41.704;44.768;2023-04-12T11:08:09;10.80;;;3.53;;
77888;SDS011;67082;41.704;44.768;2023-04-12T11:10:39;9.35;;;3.78;;
77888;SDS011;67082;41.704;44.768;2023-04-12T11:13:14;14.75;;;3.53;;
77888;SDS011;67082;41.704;44.768;2023-04-12T11:15:43;11.38;;;3.53;;
77888;SDS011;67082;41.704;44.768;2023-04-12T11:18:11;14.10;;;4.20;;
77888;SDS011;67082;41.704;44.768;2023-04-12T11:20:40;12.57;;;4.50;;
77888;SDS011;67082;41.704;44.768;2023-04-12T11:23:08;12.13;;;4.60;;
77888;SDS011;67082;41.704;44.768;2023-04-12T11:25:39;12.27;;;5.05;;
77888;SDS011;67082;41.704;44.768;2023-04-12T11:28:07;19.98;;;5.80;;
77888;SDS011;67082;41.704;44.768;2023-04-12T11:30:52;15.35;;;5.65;;
77888;SDS011;67082;41.704;44.768;2023-04-12T11:36:18;16.92;;;5.88;;
77888;SDS011;67082;41.704;44.768;2023-04-12T11:38:47;18.48;;;6.88;;
77888;SDS011;67082;41.704;44.768;2023-04-12T11:41:16;17.15;;;6.85;;
77888;SDS011;67082;41.704;44.768;2023-04-12T11:43:44;18.52;;;7.22;;
77888;SDS011;67082;41.704;44.768;2023-04-12T11:46:14;23.80;;;7.40;;
77888;SDS011;67082;41.704;44.768;2023-04-12T11:48:44;18.27;;;7.00;;
77888;SDS011;67082;41.704;44.768;2023-04-12T11:51:22;18.30;;;7.13;;
77888;SDS011;67082;41.704;44.768;2023-04-12T11:53:58;15.13;;;6.53;;
77888;SDS011;67082;41.704;44.768;2023-04-12T11:56:27;15.57;;;6.15;;
77888;SDS011;67082;41.704;44.768;2023-04-12T11:58:55;11.80;;;6.00;;
77888;SDS011;67082;41.704;44.768;2023-04-12T12:01:24;12.50;;;5.78;;
77888;SDS011;67082;41.704;44.768;2023-04-12T12:03:54;12.82;;;5.07;;
77888;SDS011;67082;41.704;44.768;2023-04-12T12:06:23;12.75;;;4.97;;
77888;SDS011;67082;41.704;44.768;2023-04-12T12:08:52;13.73;;;4.65;;
77888;SDS011;67082;41.704;44.768;2023-04-12T12:11:22;13.70;;;4.50;;
77888;SDS011;67082;41.704;44.768;2023-04-12T12:13:53;8.00;;;3.65;;
77888;SDS011;67082;41.704;44.768;2023-04-12T12:16:26;12.25;;;3.47;;
77888;SDS011;67082;41.704;44.768;2023-04-12T12:18:55;16.30;;;4.53;;
77888;SDS011;67082;41.704;44.768;2023-04-12T12:21:24;9.73;;;3.65;;
77888;SDS011;67082;41.704;44.768;2023-04-12T12:23:54;12.10;;;4.22;;
77888;SDS011;67082;41.704;44.768;2023-04-12T12:26:25;8.48;;;3.55;;
77888;SDS011;67082;41.704;44.768;2023-04-12T12:28:55;8.85;;;3.45;;
77888;SDS011;67082;41.704;44.768;2023-04-12T12:31:27;9.77;;;3.45;;
77888;SDS011;67082;41.704;44.768;2023-04-12T12:33:56;12.77;;;3.55;;
77888;SDS011;67082;41.704;44.768;2023-04-12T12:39:06;6.88;;;3.13;;
77888;SDS011;67082;41.704;44.768;2023-04-12T12:44:07;11.40;;;3.78;;
77888;SDS011;67082;41.704;44.768;2023-04-12T12:46:35;8.38;;;3.53;;
77888;SDS011;67082;41.704;44.768;2023-04-12T12:49:19;12.05;;;3.67;;
77888;SDS011;67082;41.704;44.768;2023-04-12T12:51:48;9.23;;;3.70;;
77888;SDS011;67082;41.704;44.768;2023-04-12T12:54:17;18.02;;;4.50;;
77888;SDS011;67082;41.704;44.768;2023-04-12T12:57:05;13.52;;;3.80;;
77888;SDS011;67082;41.704;44.768;2023-04-12T12:59:33;11.90;;;4.40;;
77888;SDS011;67082;41.704;44.768;2023-04-12T13:02:01;14.05;;;4.78;;
77888;SDS011;67082;41.704;44.768;2023-04-12T13:04:29;8.55;;;4.03;;
77888;SDS011;67082;41.704;44.768;2023-04-12T13:06:58;7.80;;;3.95;;
77888;SDS011;67082;41.704;44.768;2023-04-12T13:09:26;8.75;;;3.80;;
77888;SDS011;67082;41.704;44.768;2023-04-12T13:11:54;10.18;;;3.97;;
77888;SDS011;67082;41.704;44.768;2023-04-12T13:14:23;9.07;;;4.05;;
77888;SDS011;67082;41.704;44.768;2023-04-12T13:16:51;14.18;;;4.07;;
77888;SDS011;67082;41.704;44.768;2023-04-12T13:19:20;10.88;;;4.47;;
77888;SDS011;67082;41.704;44.768;2023-04-12T13:21:48;11.20;;;4.50;;
77888;SDS011;67082;41.704;44.768;2023-04-12T13:24:19;13.43;;;4.32;;
77888;SDS011;67082;41.704;44.768;2023-04-12T13:26:47;11.40;;;4.55;;
77888;SDS011;67082;41.704;44.768;2023-04-12T13:29:15;10.82;;;4.45;;
77888;SDS011;67082;41.704;44.768;2023-04-12T13:31:46;10.38;;;5.03;;
77888;SDS011;67082;41.704;44.768;2023-04-12T13:34:14;10.15;;;5.03;;
77888;SDS011;67082;41.704;44.768;2023-04-12T13:36:43;9.93;;;5.18;;
77888;SDS011;67082;41.704;44.768;2023-04-12T13:39:11;13.27;;;5.32;;
77888;SDS011;67082;41.704;44.768;2023-04-12T13:41:39;14.10;;;6.43;;
77888;SDS011;67082;41.704;44.768;2023-04-12T13:44:07;13.52;;;5.25;;
77888;SDS011;67082;41.704;44.768;2023-04-12T13:46:35;13.88;;;5.90;;
77888;SDS011;67082;41.704;44.768;2023-04-12T13:49:03;16.08;;;5.72;;
77888;SDS011;67082;41.704;44.768;2023-04-12T13:51:31;16.90;;;6.30;;
77888;SDS011;67082;41.704;44.768;2023-04-12T13:53:59;14.93;;;6.10;;
77888;SDS011;67082;41.704;44.768;2023-04-12T13:56:28;14.73;;;5.82;;
77888;SDS011;67082;41.704;44.768;2023-04-12T13:58:59;15.15;;;5.80;;
77888;SDS011;67082;41.704;44.768;2023-04-12T14:01:28;14.45;;;5.90;;
77888;SDS011;67082;41.704;44.768;2023-04-12T14:03:56;12.95;;;6.00;;
77888;SDS011;67082;41.704;44.768;2023-04-12T14:06:25;13.00;;;5.05;;
77888;SDS011;67082;41.704;44.768;2023-04-12T14:08:53;13.88;;;4.60;;
77888;SDS011;67082;41.704;44.768;2023-04-12T14:11:22;12.75;;;5.03;;
77888;SDS011;67082;41.704;44.768;2023-04-12T14:13:51;18.27;;;5.03;;
77888;SDS011;67082;41.704;44.768;2023-04-12T14:16:19;10.73;;;4.40;;
77888;SDS011;67082;41.704;44.768;2023-04-12T14:18:47;12.45;;;4.47;;
77888;SDS011;67082;41.704;44.768;2023-04-12T14:21:16;13.07;;;4.15;;
77888;SDS011;67082;41.704;44.768;2023-04-12T14:23:44;8.85;;;4.05;;
77888;SDS011;67082;41.704;44.768;2023-04-12T14:26:13;8.82;;;3.67;;
77888;SDS011;67082;41.704;44.768;2023-04-12T14:28:45;6.32;;;3.70;;
77888;SDS011;67082;41.704;44.768;2023-04-12T14:31:16;9.07;;;3.67;;
77888;SDS011;67082;41.704;44.768;2023-04-12T14:33:44;9.13;;;3.47;;
77888;SDS011;67082;41.704;44.768;2023-04-12T14:36:13;8.10;;;3.47;;
77888;SDS011;67082;41.704;44.768;2023-04-12T14:38:41;7.22;;;2.92;;
77888;SDS011;67082;41.704;44.768;2023-04-12T15:58:32;29.20;;;13.90;;
77888;SDS011;67082;41.704;44.768;2023-04-12T16:01:01;30.95;;;13.07;;
77888;SDS011;67082;41.704;44.768;2023-04-12T16:03:28;35.50;;;13.43;;
77888;SDS011;67082;41.704;44.768;2023-04-12T16:05:57;29.95;;;12.27;;
77888;SDS011;67082;41.704;44.768;2023-04-12T16:08:26;25.92;;;11.65;;
77888;SDS011;67082;41.704;44.768;2023-04-12T16:10:54;26.05;;;10.45;;
77888;SDS011;67082;41.704;44.768;2023-04-12T16:13:23;16.02;;;8.85;;
77888;SDS011;67082;41.704;44.768;2023-04-12T16:15:51;20.17;;;7.70;;
77888;SDS011;67082;41.704;44.768;2023-04-12T16:18:19;14.23;;;6.45;;
77888;SDS011;67082;41.704;44.768;2023-04-12T16:20:47;15.02;;;6.47;;
77888;SDS011;67082;41.704;44.768;2023-04-12T16:23:15;18.23;;;6.95;;
77888;SDS011;67082;41.704;44.768;2023-04-12T16:25:44;14.32;;;7.07;;